Schneifelwetter: Wetterstation Hallschlag, 537 m . NN
Wetterdaten: Freitag, 28.08.2009
Datum Zeit Temp. A. Feuchte A. Luftdruck Regen Wind Richtung Richtung Sonnenschein Helligkeit T Regen Taupunkt Windchill
28.08.2009 00:10 15,2 C 82 % 1014 hPa 0,0 l/m 8,0 km/h (2 Bft) W-SW22.5 240 0 min 0 lux 0,00 min 12,1 C 14,3 C
28.08.2009 00:25 15,2 C 82 % 1014 hPa 0,0 l/m 8,8 km/h (2 Bft) W-SW 250 0 min 0 lux 0,00 min 12,1 C 13,9 C
28.08.2009 00:40 15,1 C 82 % 1014 hPa 0,0 l/m 6,1 km/h (2 Bft) W-SW 250 0 min 0 lux 0,00 min 12,0 C 15,1 C
28.08.2009 00:55 15,0 C 82 % 1014 hPa 0,0 l/m 0,0 km/h (0 Bft) W-SW 250 0 min 0 lux 0,00 min 12,0 C 15,0 C
28.08.2009 01:10 14,6 C 82 % 1014 hPa 0,0 l/m 0,0 km/h (0 Bft) W-SW 250 0 min 0 lux 0,00 min 11,6 C 14,6 C
28.08.2009 01:25 14,2 C 82 % 1014 hPa 0,0 l/m 0,0 km/h (0 Bft) W-SW 250 0 min 0 lux 0,00 min 11,2 C 14,2 C
28.08.2009 01:40 13,8 C 82 % 1014 hPa 0,0 l/m 0,0 km/h (0 Bft) W-SW 250 0 min 0 lux 0,00 min 10,8 C 13,8 C
28.08.2009 01:55 13,5 C 83 % 1013 hPa 0,0 l/m 0,0 km/h (0 Bft) W-SW 250 0 min 0 lux 0,00 min 10,7 C 13,5 C
28.08.2009 02:10 13,2 C 84 % 1013 hPa 0,0 l/m 0,0 km/h (0 Bft) W-SW 250 0 min 0 lux 0,00 min 10,6 C 13,2 C
28.08.2009 02:25 13,1 C 84 % 1013 hPa 0,0 l/m 0,0 km/h (0 Bft) W-SW 250 0 min 0 lux 0,00 min 10,5 C 13,1 C
28.08.2009 02:40 12,9 C 85 % 1013 hPa 0,0 l/m 0,0 km/h (0 Bft) W-SW 250 0 min 0 lux 0,00 min 10,4 C 12,9 C
28.08.2009 02:55 12,7 C 86 % 1013 hPa 0,0 l/m 0,0 km/h (0 Bft) W-SW 250 0 min 0 lux 0,00 min 10,4 C 12,7 C
28.08.2009 03:10 12,6 C 87 % 1013 hPa 0,0 l/m 6,5 km/h (2 Bft) W-SW 250 0 min 0 lux 0,00 min 10,5 C 12,6 C
28.08.2009 03:25 12,9 C 88 % 1013 hPa 0,0 l/m 7,8 km/h (2 Bft) W-SW 250 0 min 0 lux 0,00 min 11,0 C 12,0 C
28.08.2009 03:40 13,3 C 89 % 1013 hPa 0,0 l/m 7,8 km/h (2 Bft) W-SW 250 0 min 0 lux 0,00 min 11,5 C 12,4 C
28.08.2009 03:55 13,8 C 90 % 1012 hPa 0,0 l/m 9,8 km/h (2 Bft) W-SW 250 0 min 0 lux 0,00 min 12,2 C 11,9 C
28.08.2009 04:10 14,1 C 89 % 1012 hPa 0,0 l/m 9,6 km/h (2 Bft) W-SW 250 0 min 0 lux 0,00 min 12,3 C 12,3 C
28.08.2009 04:25 14,4 C 89 % 1013 hPa 0,0 l/m 10,1 km/h (2 Bft) W-SW 250 0 min 0 lux 0,00 min 12,6 C 12,4 C
28.08.2009 04:40 14,5 C 89 % 1012 hPa 0,0 l/m 14,8 km/h (3 Bft) W22.5 275 0 min 0 lux 0,00 min 12,7 C 10,7 C
28.08.2009 04:55 14,2 C 88 % 1012 hPa 0,0 l/m 4,9 km/h (1 Bft) W-SW 255 0 min 0 lux 0,00 min 12,2 C 14,2 C
28.08.2009 05:10 14,0 C 88 % 1012 hPa 0,0 l/m 6,9 km/h (2 Bft) W-SW 245 0 min 0 lux 0,00 min 12,0 C 13,7 C
28.08.2009 05:25 14,0 C 89 % 1012 hPa 0,0 l/m 6,7 km/h (2 Bft) W-SW 245 0 min 0 lux 0,00 min 12,2 C 13,8 C
28.08.2009 05:40 14,0 C 90 % 1012 hPa 0,0 l/m 10,1 km/h (2 Bft) W-SW22.5 245 0 min 0 lux 0,00 min 12,4 C 12,0 C
28.08.2009 05:55 13,9 C 89 % 1012 hPa 0,0 l/m 11,0 km/h (2 Bft) W-SW22.5 250 0 min 0 lux 0,00 min 12,1 C 11,4 C
28.08.2009 06:10 13,9 C 90 % 1012 hPa 0,0 l/m 11,8 km/h (2 Bft) W-SW45 250 0 min 0 lux 0,00 min 12,3 C 11,1 C
28.08.2009 06:25 14,0 C 92 % 1012 hPa 0,0 l/m 13,2 km/h (3 Bft) W-SW45 245 0 min 101 lux 0,00 min 12,7 C 10,6 C
28.08.2009 06:45 14,1 C 92 % 1012 hPa 0,0 l/m 16,7 km/h (3 Bft) SW45 235 0 min 411 lux 0,00 min 12,8 C 9,5 C
28.08.2009 07:00 14,2 C 92 % 1012 hPa 0,0 l/m 15,9 km/h (3 Bft) W-SW67.5 250 0 min 725 lux 0,00 min 12,9 C 9,9 C
28.08.2009 07:15 14,4 C 92 % 1012 hPa 0,0 l/m 14,9 km/h (3 Bft) W-SW67.5 250 0 min 1,22 klux 0,00 min 13,1 C 10,5 C
28.08.2009 07:30 14,6 C 91 % 1012 hPa 0,0 l/m 17,4 km/h (3 Bft) W-SW22.5 250 0 min 3,90 klux 0,00 min 13,1 C 10,0 C
28.08.2009 07:45 14,7 C 91 % 1012 hPa 0,0 l/m 13,5 km/h (3 Bft) W-SW45 240 0 min 3,49 klux 0,00 min 13,2 C 11,4 C
28.08.2009 08:00 14,9 C 91 % 1012 hPa 0,0 l/m 16,0 km/h (3 Bft) W-SW22.5 255 0 min 3,19 klux 0,00 min 13,4 C 10,7 C
28.08.2009 08:16 14,9 C 90 % 1012 hPa 0,0 l/m 17,1 km/h (3 Bft) W-SW22.5 255 0 min 2,59 klux 0,00 min 13,3 C 10,4 C
28.08.2009 08:31 14,9 C 90 % 1012 hPa 0,0 l/m 18,5 km/h (3 Bft) W22.5 260 0 min 5,86 klux 0,00 min 13,3 C 10,0 C
28.08.2009 08:46 15,0 C 90 % 1012 hPa 0,0 l/m 20,5 km/h (4 Bft) W22.5 265 0 min 8,44 klux 0,00 min 13,4 C 9,6 C
28.08.2009 09:01 15,6 C 89 % 1012 hPa 0,0 l/m 19,0 km/h (3 Bft) SW45 230 0 min 20,5 klux 0,00 min 13,8 C 10,8 C
28.08.2009 09:15 16,3 C 86 % 1012 hPa 0,0 l/m 23,6 km/h (4 Bft) W45 260 0 min 25,1 klux 0,00 min 14,0 C 10,6 C
28.08.2009 09:30 16,7 C 84 % 1012 hPa 0,0 l/m 26,4 km/h (4 Bft) W-SW45 255 0 min 29,7 klux 0,00 min 14,0 C 10,7 C
28.08.2009 09:45 17,2 C 81 % 1012 hPa 0,0 l/m 27,1 km/h (4 Bft) W-SW45 255 0 min 41,4 klux 0,00 min 13,9 C 11,2 C
28.08.2009 10:00 17,4 C 79 % 1012 hPa 0,0 l/m 25,8 km/h (4 Bft) W67.5 260 15 min 47,7 klux 0,00 min 13,7 C 11,7 C
28.08.2009 10:16 17,0 C 78 % 1012 hPa 0,0 l/m 24,3 km/h (4 Bft) SW45 235 0 min 22,1 klux 0,00 min 13,1 C 11,4 C
28.08.2009 10:31 17,4 C 77 % 1012 hPa 0,0 l/m 33,5 km/h (5 Bft) W22.5 270 15 min 64,3 klux 0,00 min 13,3 C 10,6 C
28.08.2009 10:46 17,4 C 76 % 1012 hPa 0,0 l/m 29,3 km/h (5 Bft) W45 260 0 min 41,3 klux 0,00 min 13,1 C 11,2 C
28.08.2009 11:01 17,4 C 72 % 1013 hPa 0,0 l/m 35,3 km/h (5 Bft) W45 275 0 min 34,3 klux 0,00 min 12,3 C 10,4 C
28.08.2009 11:15 16,4 C 75 % 1013 hPa 0,0 l/m 27,8 km/h (4 Bft) W-SW67.5 245 0 min 10,5 klux 0,00 min 12,0 C 10,0 C
28.08.2009 11:30 16,2 C 76 % 1013 hPa 0,0 l/m 33,4 km/h (5 Bft) W22.5 265 0 min 12,3 klux 0,00 min 12,0 C 8,9 C
28.08.2009 11:45 16,6 C 78 % 1013 hPa 0,0 l/m 30,5 km/h (5 Bft) W45 270 15 min 46,7 klux 0,00 min 12,7 C 9,9 C
28.08.2009 12:01 17,6 C 77 % 1013 hPa 0,0 l/m 31,7 km/h (5 Bft) W-SW45 250 16 min 65,9 klux 0,00 min 13,5 C 11,1 C
28.08.2009 12:16 16,4 C 80 % 1013 hPa 0,0 l/m 30,1 km/h (5 Bft) W-SW67.5 250 0 min 18,3 klux 0,00 min 12,9 C 9,6 C
28.08.2009 12:31 15,9 C 82 % 1013 hPa 0,0 l/m 33,1 km/h (5 Bft) W22.5 275 0 min 38,8 klux 0,00 min 12,8 C 8,5 C
28.08.2009 12:46 16,3 C 80 % 1013 hPa 0,0 l/m 24,3 km/h (4 Bft) W45 275 15 min 72,8 klux 0,00 min 12,8 C 10,5 C
28.08.2009 13:00 16,3 C 79 % 1013 hPa 0,0 l/m 39,1 km/h (6 Bft) W45 270 0 min 23,0 klux 0,00 min 12,6 C 8,3 C
28.08.2009 13:15 17,1 C 76 % 1013 hPa 0,0 l/m 31,5 km/h (5 Bft) W22.5 270 15 min 52,9 klux 0,00 min 12,8 C 10,4 C
28.08.2009 13:30 17,3 C 73 % 1014 hPa 0,0 l/m 36,2 km/h (5 Bft) W45 260 15 min 60,9 klux 0,00 min 12,4 C 10,1 C
28.08.2009 13:45 17,2 C 72 % 1014 hPa 0,0 l/m 34,2 km/h (5 Bft) W45 265 0 min 33,2 klux 0,00 min 12,1 C 10,2 C
28.08.2009 14:01 17,7 C 71 % 1014 hPa 0,0 l/m 42,3 km/h (6 Bft) W45 260 0 min 45,3 klux 0,00 min 12,4 C 10,1 C
28.08.2009 14:16 18,5 C 65 % 1014 hPa 0,0 l/m 39,8 km/h (6 Bft) W67.5 270 15 min 94,0 klux 0,00 min 11,8 C 11,5 C
28.08.2009 14:31 18,4 C 66 % 1014 hPa 0,0 l/m 37,6 km/h (5 Bft) W-SW67.5 255 15 min 95,1 klux 0,00 min 11,9 C 11,6 C
28.08.2009 14:46 18,6 C 64 % 1014 hPa 0,0 l/m 29,8 km/h (5 Bft) W-SW67.5 240 15 min 95,0 klux 0,00 min 11,7 C 12,8 C
28.08.2009 15:00 19,0 C 61 % 1014 hPa 0,0 l/m 37,3 km/h (5 Bft) W-SW45 250 14 min 85,9 klux 0,00 min 11,3 C 12,5 C
28.08.2009 15:15 18,9 C 59 % 1014 hPa 0,0 l/m 44,4 km/h (6 Bft) W67.5 260 15 min 90,2 klux 0,00 min 10,7 C 11,7 C
28.08.2009 15:30 18,7 C 57 % 1014 hPa 0,0 l/m 34,1 km/h (5 Bft) W-SW22.5 250 15 min 83,9 klux 0,00 min 10,0 C 12,4 C
28.08.2009 15:46 18,1 C 57 % 1014 hPa 0,0 l/m 38,0 km/h (5 Bft) W45 270 16 min 78,8 klux 0,00 min 9,4 C 11,1 C
28.08.2009 16:01 18,0 C 57 % 1014 hPa 0,0 l/m 35,3 km/h (5 Bft) W45 260 15 min 79,8 klux 0,00 min 9,4 C 11,2 C
28.08.2009 16:16 17,7 C 58 % 1014 hPa 0,0 l/m 38,0 km/h (5 Bft) W45 270 15 min 75,1 klux 0,00 min 9,3 C 10,5 C
28.08.2009 16:31 17,4 C 58 % 1014 hPa 0,0 l/m 36,1 km/h (5 Bft) W45 275 15 min 75,3 klux 0,00 min 9,1 C 10,3 C
28.08.2009 16:45 17,1 C 59 % 1014 hPa 0,0 l/m 23,0 km/h (4 Bft) W22.5 265 14 min 72,6 klux 0,00 min 9,0 C 11,8 C
28.08.2009 17:00 17,3 C 57 % 1014 hPa 0,0 l/m 38,7 km/h (5 Bft) W45 275 15 min 55,7 klux 0,00 min 8,7 C 9,9 C
28.08.2009 17:15 16,9 C 57 % 1014 hPa 0,0 l/m 41,0 km/h (6 Bft) W22.5 265 0 min 19,7 klux 0,00 min 8,3 C 9,0 C
28.08.2009 17:30 16,8 C 57 % 1014 hPa 0,0 l/m 31,7 km/h (5 Bft) W45 265 15 min 56,4 klux 0,00 min 8,2 C 10,0 C
28.08.2009 17:46 16,8 C 56 % 1014 hPa 0,0 l/m 39,2 km/h (6 Bft) W22.5 270 16 min 58,4 klux 0,00 min 8,0 C 9,1 C
28.08.2009 18:01 16,2 C 57 % 1014 hPa 0,0 l/m 30,5 km/h (5 Bft) W45 270 0 min 15,0 klux 0,00 min 7,7 C 9,3 C
28.08.2009 18:16 16,4 C 58 % 1014 hPa 0,0 l/m 29,2 km/h (5 Bft) W45 260 0 min 44,8 klux 0,00 min 8,1 C 9,8 C
28.08.2009 18:30 16,4 C 56 % 1014 hPa 0,0 l/m 32,9 km/h (5 Bft) W45 260 0 min 41,7 klux 0,00 min 7,6 C 9,2 C
28.08.2009 18:45 16,4 C 56 % 1014 hPa 0,0 l/m 36,0 km/h (5 Bft) W45 260 0 min 33,7 klux 0,00 min 7,6 C 8,8 C
28.08.2009 19:00 15,5 C 58 % 1014 hPa 0,0 l/m 27,6 km/h (4 Bft) W22.5 265 0 min 24,4 klux 0,00 min 7,3 C 8,8 C
28.08.2009 19:15 15,4 C 59 % 1014 hPa 0,0 l/m 19,5 km/h (3 Bft) W-SW45 250 0 min 26,9 klux 0,00 min 7,4 C 10,4 C
28.08.2009 19:31 15,6 C 57 % 1014 hPa 0,0 l/m 26,4 km/h (4 Bft) W45 260 0 min 21,4 klux 0,00 min 7,1 C 9,2 C
28.08.2009 19:46 15,4 C 57 % 1014 hPa 0,0 l/m 33,0 km/h (5 Bft) W45 260 0 min 14,0 klux 0,00 min 6,9 C 7,8 C
28.08.2009 20:01 14,6 C 59 % 1014 hPa 0,0 l/m 16,1 km/h (3 Bft) W45 265 0 min 4,44 klux 0,00 min 6,7 C 10,3 C
28.08.2009 20:16 13,7 C 61 % 1014 hPa 0,0 l/m 15,0 km/h (3 Bft) W22.5 260 0 min 2,68 klux 0,00 min 6,3 C 9,6 C
28.08.2009 20:30 13,2 C 62 % 1014 hPa 0,0 l/m 9,5 km/h (2 Bft) W22.5 260 0 min 1,08 klux 0,00 min 6,1 C 11,4 C
28.08.2009 20:45 12,3 C 65 % 1014 hPa 0,0 l/m 24,1 km/h (4 Bft) W45 270 0 min 234 lux 0,00 min 5,9 C 5,2 C
28.08.2009 21:00 11,6 C 66 % 1014 hPa 0,0 l/m 10,4 km/h (2 Bft) W-SW45 240 0 min 30 lux 0,00 min 5,5 C 9,1 C
28.08.2009 21:15 10,9 C 68 % 1014 hPa 0,0 l/m 5,7 km/h (1 Bft) W-SW22.5 240 0 min 6 lux 0,00 min 5,2 C 10,9 C
28.08.2009 21:31 10,5 C 69 % 1015 hPa 0,0 l/m 6,7 km/h (2 Bft) SW22.5 220 0 min 0 lux 0,00 min 5,1 C 10,3 C
28.08.2009 21:46 10,1 C 70 % 1015 hPa 0,0 l/m 9,2 km/h (2 Bft) W-SW45 240 0 min 0 lux 0,00 min 4,9 C 8,2 C
28.08.2009 22:01 9,8 C 72 % 1015 hPa 0,0 l/m 5,4 km/h (1 Bft) S-SW 205 0 min 0 lux 0,00 min 5,0 C 9,8 C
28.08.2009 22:15 9,4 C 72 % 1015 hPa 0,0 l/m 2,6 km/h (1 Bft) S-SW 205 0 min 0 lux 0,00 min 4,6 C 9,4 C
28.08.2009 22:30 9,1 C 74 % 1015 hPa 0,0 l/m 4,8 km/h (1 Bft) S-SW 205 0 min 0 lux 0,00 min 4,7 C 9,1 C
28.08.2009 22:45 8,8 C 75 % 1015 hPa 0,0 l/m 4,0 km/h (1 Bft) S-SW 205 0 min 0 lux 0,00 min 4,6 C 8,8 C
28.08.2009 23:01 8,5 C 76 % 1015 hPa 0,0 l/m 7,0 km/h (2 Bft) W 270 0 min 0 lux 0,00 min 4,5 C 8,0 C
28.08.2009 23:10 8,4 C 76 % 1015 hPa 0,0 l/m 7,2 km/h (2 Bft) W22.5 260 0 min 0 lux 0,00 min 4,4 C 7,8 C
28.08.2009 23:31 8,2 C 77 % 1015 hPa 0,0 l/m 0,9 km/h (0 Bft) W-SW 250 0 min 0 lux 0,00 min 4,4 C 8,2 C
28.08.2009 23:46 8,0 C 78 % 1015 hPa 0,0 l/m 7,2 km/h (2 Bft) SW45 225 0 min 0 lux 0,00 min 4,4 C 7,4 C
28.08.2009 23:55 7,8 C 79 % 1015 hPa 0,0 l/m 8,1 km/h (2 Bft) SW22.5 235 0 min 0 lux 0,00 min 4,4 C 6,5 C
_ Min-Zeit 23:55 17:46 03:55 - 00:55 - - - - - 23:55 20:45
Minimum _ 7,8 C 56 % 1012 hPa - 0,0 km/h (0 Bft) - - - - - 4,4 C 5,2 C
_ Max-Zeit 15:00 06:25 21:31 00:10 15:15 - - 12:01 14:31 00:10 09:30 00:40
Maximum _ 19,0 C 92 % 1015 hPa 0,0 l/m 44,4 km/h
W (6 Bft)
- - 16 min 95,1 klux 0,00 min 14,0 C 15,1 C
Durchschnitt _ 14,8 C 76 % 1014 hPa #0,0 l/m 19,4 km/h (3 Bft) W - #5:16 h 22,7 klux #0 min. 10,3 C 10,8 C